createdAt,value
2018-01-02T00:02:09.090Z,16.50
2018-01-02T00:04:35.559Z,23.40
2018-01-02T00:07:02.016Z,29.77
2018-01-02T00:09:28.447Z,26.17
2018-01-02T00:11:55.649Z,13.43
2018-01-02T00:14:22.129Z,15.00
2018-01-02T00:16:48.851Z,18.23
2018-01-02T00:19:15.243Z,13.00
2018-01-02T00:21:42.426Z,16.57
2018-01-02T00:24:08.858Z,12.30
2018-01-02T00:26:35.389Z,33.63
2018-01-02T00:29:01.824Z,16.80
2018-01-02T00:31:28.257Z,23.60
2018-01-02T00:33:54.722Z,30.57
2018-01-02T00:36:21.856Z,19.87
2018-01-02T00:38:48.311Z,22.53
2018-01-02T00:41:14.704Z,20.13
2018-01-02T00:43:41.152Z,16.50
2018-01-02T00:46:07.878Z,22.87
2018-01-02T00:48:34.275Z,18.03
2018-01-02T00:51:00.638Z,20.87
2018-01-02T00:53:27.029Z,20.33
2018-01-02T00:55:53.399Z,20.67
2018-01-02T00:58:19.835Z,30.17
2018-01-02T01:00:46.219Z,30.97
2018-01-02T01:03:12.586Z,24.23
2018-01-02T01:05:39.690Z,22.53
2018-01-02T01:08:06.755Z,18.57
2018-01-02T01:10:33.178Z,18.77
2018-01-02T01:12:59.652Z,16.13
2018-01-02T01:15:26.073Z,17.53
2018-01-02T01:17:52.596Z,15.13
2018-01-02T01:20:19.800Z,17.90
2018-01-02T01:22:46.159Z,18.40
2018-01-02T01:25:12.547Z,19.17
2018-01-02T01:27:39.756Z,31.37
2018-01-02T01:30:06.429Z,17.87
2018-01-02T01:32:32.829Z,17.20
2018-01-02T01:34:59.180Z,15.67
2018-01-02T01:37:25.536Z,18.87
2018-01-02T01:39:51.900Z,17.03
2018-01-02T01:42:19.021Z,15.83
2018-01-02T01:44:45.374Z,14.27
2018-01-02T01:47:11.714Z,15.60
2018-01-02T01:49:38.034Z,13.57
2018-01-02T01:52:05.015Z,10.80
2018-01-02T01:54:31.391Z,10.93
2018-01-02T01:56:57.822Z,11.90
2018-01-02T01:59:24.162Z,12.80
2018-01-02T02:01:50.841Z,7.97
2018-01-02T02:04:17.336Z,11.17
2018-01-02T02:06:43.715Z,5.90
2018-01-02T02:09:10.059Z,5.47
2018-01-02T02:11:37.174Z,4.90
2018-01-02T02:14:04.352Z,6.90
2018-01-02T02:16:30.699Z,5.53
2018-01-02T02:18:57.343Z,6.70
2018-01-02T02:21:23.779Z,3.00
2018-01-02T02:23:50.087Z,4.50
2018-01-02T02:26:17.167Z,7.10
2018-01-02T02:28:43.481Z,5.97
2018-01-02T02:31:09.835Z,7.37
2018-01-02T02:33:36.920Z,4.60
2018-01-02T02:36:03.893Z,3.70
2018-01-02T02:38:31.714Z,9.10
2018-01-02T02:41:07.056Z,6.80
2018-01-02T02:43:33.457Z,6.10
2018-01-02T02:45:59.832Z,10.27
2018-01-02T02:48:26.163Z,5.63
2018-01-02T02:50:52.542Z,10.70
2018-01-02T02:53:18.847Z,8.57
2018-01-02T02:55:45.255Z,6.87
2018-01-02T02:58:12.322Z,7.67
2018-01-02T03:00:38.651Z,8.87
2018-01-02T03:03:05.343Z,13.17
2018-01-02T03:05:31.747Z,9.73
2018-01-02T03:07:58.112Z,14.40
2018-01-02T03:10:24.436Z,10.60
2018-01-02T03:12:51.507Z,6.00
2018-01-02T03:15:18.555Z,8.57
2018-01-02T03:17:45.735Z,11.93
2018-01-02T03:20:12.086Z,10.90
2018-01-02T03:22:38.430Z,11.33
2018-01-02T03:25:05.497Z,10.17
2018-01-02T03:27:31.868Z,9.70
2018-01-02T03:29:58.207Z,5.07
2018-01-02T03:32:25.387Z,4.70
2018-01-02T03:34:53.297Z,4.20
2018-01-02T03:37:19.693Z,4.70
2018-01-02T03:39:46.042Z,3.33
2018-01-02T03:42:12.348Z,3.53
2018-01-02T03:44:38.727Z,5.80
2018-01-02T03:47:05.751Z,3.00
2018-01-02T03:49:32.177Z,3.10
2018-01-02T03:51:58.524Z,4.20
2018-01-02T03:54:24.847Z,4.20
2018-01-02T03:56:51.279Z,3.80
2018-01-02T03:59:18.332Z,3.60
2018-01-02T04:01:46.148Z,7.70
2018-01-02T04:04:12.472Z,5.63
2018-01-02T04:06:38.838Z,5.03
2018-01-02T04:09:05.907Z,5.97
2018-01-02T04:11:33.091Z,7.53
2018-01-02T04:13:59.541Z,7.03
2018-01-02T04:16:25.951Z,6.00
2018-01-02T04:18:52.275Z,5.07
2018-01-02T04:21:18.608Z,9.33
2018-01-02T04:23:45.702Z,8.00
2018-01-02T04:26:12.019Z,8.47
2018-01-02T04:28:39.126Z,5.73
2018-01-02T04:31:06.188Z,9.67
2018-01-02T04:33:33.326Z,8.03
2018-01-02T04:35:59.680Z,10.17
2018-01-02T04:38:26.038Z,11.40
2018-01-02T04:40:52.348Z,9.87
2018-01-02T04:43:18.734Z,8.47
2018-01-02T04:45:46.587Z,15.00
2018-01-02T04:48:12.917Z,11.23
2018-01-02T04:50:39.436Z,12.93
2018-01-02T04:53:05.983Z,13.97
2018-01-02T04:55:32.327Z,12.17
2018-01-02T04:57:58.667Z,18.47
2018-01-02T05:00:25.904Z,12.70
2018-01-02T05:02:52.972Z,14.73
2018-01-02T05:05:20.067Z,14.40
2018-01-02T05:07:46.395Z,13.63
2018-01-02T05:10:13.509Z,19.70
2018-01-02T05:12:40.615Z,11.50
2018-01-02T05:15:07.786Z,11.80
2018-01-02T05:17:34.092Z,13.03
2018-01-02T05:20:01.203Z,14.20
2018-01-02T05:22:27.559Z,14.20
2018-01-02T05:24:53.919Z,13.67
2018-01-02T05:27:20.268Z,18.60
2018-01-02T05:29:46.623Z,19.07
2018-01-02T05:32:13.779Z,15.50
2018-01-02T05:34:40.107Z,16.17
2018-01-02T05:37:06.439Z,14.03
2018-01-02T05:39:33.571Z,16.77
2018-01-02T05:42:00.087Z,20.53
2018-01-02T05:44:26.409Z,18.07
2018-01-02T05:46:52.744Z,12.53
2018-01-02T05:49:19.136Z,14.77
2018-01-02T05:51:46.224Z,20.57
2018-01-02T05:54:12.711Z,11.87
2018-01-02T05:56:39.070Z,14.13
2018-01-02T05:59:05.849Z,9.80
2018-01-02T06:01:32.190Z,12.70
2018-01-02T06:03:58.516Z,9.37
2018-01-02T06:06:25.652Z,7.47
2018-01-02T06:08:53.505Z,11.83
2018-01-02T06:11:19.879Z,7.13
2018-01-02T06:13:46.972Z,9.03
2018-01-02T06:16:13.310Z,5.27
2018-01-02T06:18:40.386Z,5.43
2018-01-02T06:21:06.772Z,6.00
2018-01-02T06:23:33.145Z,5.90
2018-01-02T06:25:59.572Z,3.63
2018-01-02T06:28:26.662Z,9.33
2018-01-02T06:30:53.049Z,10.13
2018-01-02T06:33:19.481Z,9.57
2018-01-02T06:35:46.659Z,16.17
2018-01-02T06:38:13.003Z,13.33
2018-01-02T06:40:39.427Z,8.67
2018-01-02T06:43:06.050Z,8.90
2018-01-02T06:45:32.548Z,7.83
2018-01-02T06:47:59.019Z,14.93
2018-01-02T06:50:26.139Z,12.93
2018-01-02T06:52:52.491Z,17.33
2018-01-02T06:55:18.846Z,14.40
2018-01-02T06:57:45.269Z,16.57
2018-01-02T07:00:11.789Z,14.07
2018-01-02T07:02:39.691Z,12.30
2018-01-02T07:05:06.028Z,14.27
2018-01-02T07:07:32.455Z,15.90
2018-01-02T07:09:58.860Z,14.83
2018-01-02T07:12:25.323Z,9.73
2018-01-02T07:14:51.991Z,13.03
2018-01-02T07:17:18.434Z,16.30
2018-01-02T07:19:59.808Z,15.10
2018-01-02T07:22:26.968Z,16.43
2018-01-02T07:24:53.983Z,13.53
2018-01-02T07:27:20.538Z,8.30
2018-01-02T07:29:47.320Z,8.77
2018-01-02T07:32:14.249Z,8.73
2018-01-02T07:34:40.843Z,7.37
2018-01-02T07:37:07.336Z,11.53
2018-01-02T07:39:33.801Z,13.80
2018-01-02T07:42:00.215Z,17.17
2018-01-02T07:44:26.723Z,13.83
2018-01-02T07:46:53.708Z,6.23
2018-01-02T07:49:20.067Z,12.00
2018-01-02T07:51:47.199Z,8.03
2018-01-02T07:54:15.169Z,11.30
2018-01-02T07:56:41.997Z,11.63
2018-01-02T07:59:08.381Z,15.27
2018-01-02T08:01:35.545Z,9.50
2018-01-02T08:04:02.789Z,7.70
2018-01-02T08:06:29.255Z,8.90
2018-01-02T08:08:55.842Z,10.60
2018-01-02T08:11:23.122Z,12.53
2018-01-02T08:13:49.630Z,5.27
2018-01-02T08:16:16.112Z,9.90
2018-01-02T08:18:42.633Z,5.57
2018-01-02T08:21:09.173Z,9.43
2018-01-02T08:23:36.329Z,11.70
2018-01-02T08:26:04.186Z,12.10
2018-01-02T08:28:30.734Z,12.97
2018-01-02T08:30:57.161Z,5.83
2018-01-02T08:33:23.553Z,12.53
2018-01-02T08:35:50.113Z,12.10
2018-01-02T08:38:16.527Z,10.50
2018-01-02T08:40:43.341Z,9.50
2018-01-02T08:43:09.887Z,8.33
2018-01-02T08:45:36.339Z,8.47
2018-01-02T08:48:03.146Z,5.97
2018-01-02T08:50:29.554Z,18.30
2018-01-02T08:52:56.136Z,12.80
2018-01-02T08:55:22.549Z,11.60
2018-01-02T08:57:49.647Z,6.73
2018-01-02T09:00:16.003Z,7.40
2018-01-02T09:02:42.463Z,5.87
2018-01-02T09:05:08.997Z,6.33
2018-01-02T09:07:35.544Z,7.83
2018-01-02T09:10:03.117Z,9.30
2018-01-02T09:12:35.643Z,9.23
2018-01-02T09:15:02.196Z,7.40
2018-01-02T09:17:28.696Z,10.80
2018-01-02T09:19:55.994Z,13.33
2018-01-02T09:22:22.415Z,10.60
2018-01-02T09:24:49.575Z,15.23
2018-01-02T09:27:15.943Z,6.50
2018-01-02T09:29:42.279Z,5.33
2018-01-02T09:32:08.910Z,12.83
2018-01-02T09:34:35.349Z,11.47
2018-01-02T09:37:01.950Z,7.73
2018-01-02T09:39:28.403Z,11.50
2018-01-02T09:41:54.894Z,9.40
2018-01-02T09:44:21.569Z,13.93
2018-01-02T09:46:48.778Z,5.30
2018-01-02T09:49:15.158Z,10.43
2018-01-02T09:51:41.544Z,5.90
2018-01-02T09:54:08.048Z,23.13
2018-01-02T09:56:34.457Z,11.23
2018-01-02T09:59:01.689Z,7.40
2018-01-02T10:01:28.286Z,8.70
2018-01-02T10:03:54.868Z,10.90
2018-01-02T10:06:21.355Z,3.97
2018-01-02T10:08:47.904Z,5.30
2018-01-02T10:11:14.296Z,7.30
2018-01-02T10:13:40.639Z,9.33
2018-01-02T10:16:07.279Z,7.80
2018-01-02T10:18:33.706Z,10.70
2018-01-02T10:21:00.216Z,8.27
2018-01-02T10:23:26.545Z,8.57
2018-01-02T10:25:52.991Z,14.23
2018-01-02T10:28:19.423Z,15.07
2018-01-02T10:30:45.858Z,13.87
2018-01-02T10:33:12.307Z,11.70
2018-01-02T10:35:38.859Z,8.90
2018-01-02T10:38:06.338Z,7.40
2018-01-02T10:40:32.920Z,10.27
2018-01-02T10:42:59.305Z,13.90
2018-01-02T10:45:25.712Z,10.73
2018-01-02T10:47:53.235Z,13.77
2018-01-02T10:50:19.799Z,7.63
2018-01-02T10:52:46.320Z,10.50
2018-01-02T10:55:13.672Z,9.70
2018-01-02T10:57:40.928Z,8.70
2018-01-02T11:00:08.024Z,12.43
2018-01-02T11:02:34.456Z,10.23
2018-01-02T11:05:02.348Z,5.87
2018-01-02T11:07:28.715Z,6.03
2018-01-02T11:09:55.320Z,7.53
2018-01-02T11:12:27.929Z,7.00
2018-01-02T11:14:54.567Z,9.13
2018-01-02T11:17:21.147Z,8.33
2018-01-02T11:19:48.405Z,6.37
2018-01-02T11:22:14.773Z,10.03
2018-01-02T11:24:42.767Z,5.87
2018-01-02T11:27:09.233Z,8.23
2018-01-02T11:29:36.473Z,13.07
2018-01-02T11:32:03.115Z,7.03
2018-01-02T11:34:29.860Z,18.60
2018-01-02T11:36:56.472Z,4.60
2018-01-02T11:39:23.161Z,8.63
2018-01-02T11:41:49.660Z,14.20
2018-01-02T11:44:16.727Z,12.13
2018-01-02T11:46:43.072Z,10.13
2018-01-02T11:49:09.568Z,6.97
2018-01-02T11:51:36.017Z,2.47
2018-01-02T11:54:03.617Z,6.77
2018-01-02T11:56:30.088Z,4.97
2018-01-02T11:58:57.374Z,11.30
2018-01-02T12:01:24.533Z,8.50
2018-01-02T12:03:50.888Z,5.60
2018-01-02T12:06:17.452Z,6.60
2018-01-02T12:08:44.000Z,5.87
2018-01-02T12:11:10.467Z,4.97
2018-01-02T12:13:39.288Z,7.27
2018-01-02T12:16:05.682Z,12.27
2018-01-02T12:18:32.150Z,2.83
2018-01-02T12:20:58.459Z,12.67
2018-01-02T12:23:24.880Z,3.83
2018-01-02T12:25:51.239Z,5.10
2018-01-02T12:28:18.350Z,4.87
2018-01-02T12:30:44.822Z,7.87
2018-01-02T12:33:11.784Z,8.77
2018-01-02T12:35:38.548Z,7.63
2018-01-02T12:38:05.565Z,6.20
2018-01-02T12:40:31.985Z,5.73
2018-01-02T12:43:00.807Z,10.30
2018-01-02T12:45:27.246Z,6.80
2018-01-02T12:47:53.663Z,21.07
2018-01-02T12:50:20.881Z,22.50
2018-01-02T12:52:48.048Z,9.90
2018-01-02T12:55:14.483Z,6.17
2018-01-02T12:57:40.990Z,3.90
2018-01-02T13:00:07.443Z,3.30
2018-01-02T13:02:33.856Z,12.83
2018-01-02T13:05:00.288Z,7.07
2018-01-02T13:07:27.479Z,11.23
2018-01-02T13:09:54.578Z,3.57
2018-01-02T13:12:20.925Z,21.77
2018-01-02T13:14:47.373Z,9.20
2018-01-02T13:17:13.979Z,6.57
2018-01-02T13:19:40.411Z,10.37
2018-01-02T13:22:06.788Z,11.63
2018-01-02T13:24:33.187Z,14.00
2018-01-02T13:26:59.555Z,7.83
2018-01-02T13:29:26.767Z,10.70
2018-01-02T13:31:53.132Z,6.40
2018-01-02T13:34:19.503Z,7.47
2018-01-02T13:36:45.942Z,6.47
2018-01-02T13:39:13.416Z,6.50
2018-01-02T13:41:40.511Z,15.87
2018-01-02T13:44:06.868Z,12.27
2018-01-02T13:46:33.219Z,7.20
2018-01-02T13:48:59.790Z,12.77
2018-01-02T13:51:26.178Z,6.30
2018-01-02T13:53:52.515Z,4.20
2018-01-02T13:56:19.677Z,3.40
2018-01-02T13:58:45.991Z,10.10
2018-01-02T14:01:12.334Z,15.93
2018-01-02T14:03:39.588Z,7.27
2018-01-02T14:06:06.485Z,15.57
2018-01-02T14:08:32.895Z,15.90
2018-01-02T14:10:59.434Z,11.77
2018-01-02T14:13:26.023Z,10.60
2018-01-02T14:15:52.372Z,7.10
2018-01-02T14:18:18.761Z,4.00
2018-01-02T14:20:45.183Z,5.97
2018-01-02T14:23:11.770Z,16.33
2018-01-02T14:25:38.234Z,8.20
2018-01-02T14:28:05.269Z,12.87
2018-01-02T14:30:31.846Z,12.53
2018-01-02T14:32:58.191Z,11.20
2018-01-02T14:35:24.615Z,10.83
2018-01-02T14:37:52.515Z,12.93
2018-01-02T14:40:19.863Z,9.23
2018-01-02T14:42:46.221Z,10.23
2018-01-02T14:45:12.691Z,14.60
2018-01-02T14:47:39.812Z,7.97
2018-01-02T14:50:06.587Z,10.40
2018-01-02T14:52:33.184Z,16.10
2018-01-02T14:54:59.704Z,10.93
2018-01-02T14:57:26.109Z,18.77
2018-01-02T14:59:52.463Z,21.40
2018-01-02T15:02:18.786Z,20.13
2018-01-02T15:04:46.294Z,12.50
2018-01-02T15:07:13.449Z,10.47
2018-01-02T15:09:39.954Z,15.70
2018-01-02T15:12:06.411Z,18.63
2018-01-02T15:14:32.780Z,17.63
2018-01-02T15:16:59.238Z,9.70
2018-01-02T15:19:26.309Z,16.30
2018-01-02T15:21:52.777Z,6.50
2018-01-02T15:24:19.290Z,7.07
2018-01-02T15:26:45.783Z,8.03
2018-01-02T15:29:12.287Z,11.30
2018-01-02T15:31:38.722Z,19.30
2018-01-02T15:34:05.613Z,13.90
2018-01-02T15:36:32.267Z,12.60
2018-01-02T15:38:58.644Z,14.97
2018-01-02T15:41:25.046Z,6.23
2018-01-02T15:43:51.592Z,13.27
2018-01-02T15:46:18.671Z,13.33
2018-01-02T15:48:45.079Z,21.63
2018-01-02T15:51:11.528Z,6.73
2018-01-02T15:53:38.012Z,16.37
2018-01-02T15:56:05.213Z,17.67
2018-01-02T15:58:31.590Z,12.77
2018-01-02T16:00:58.019Z,15.27
2018-01-02T16:03:24.429Z,15.90
2018-01-02T16:05:50.756Z,18.20
2018-01-02T16:08:17.131Z,23.70
2018-01-02T16:10:43.519Z,19.23
2018-01-02T16:13:10.671Z,23.50
2018-01-02T16:15:37.095Z,11.20
2018-01-02T16:18:05.174Z,17.87
2018-01-02T16:20:33.109Z,12.53
2018-01-02T16:22:59.548Z,18.53
2018-01-02T16:25:26.691Z,11.87
2018-01-02T16:27:53.080Z,16.60
2018-01-02T16:30:19.516Z,12.13
2018-01-02T16:32:45.914Z,22.00
2018-01-02T16:35:12.275Z,13.03
2018-01-02T16:37:39.409Z,15.93
2018-01-02T16:40:06.451Z,16.87
2018-01-02T16:42:32.806Z,8.50
2018-01-02T16:44:59.293Z,23.80
2018-01-02T16:47:26.418Z,19.33
2018-01-02T16:49:52.751Z,13.77
2018-01-02T16:52:19.201Z,10.53
2018-01-02T16:54:45.578Z,16.33
2018-01-02T16:57:12.700Z,14.53
2018-01-02T16:59:39.115Z,8.53
2018-01-02T17:02:05.795Z,21.43
2018-01-02T17:04:33.699Z,19.07
2018-01-02T17:07:00.787Z,12.77
2018-01-02T17:09:28.395Z,16.67
2018-01-02T17:11:54.795Z,24.57
2018-01-02T17:14:21.186Z,15.93
2018-01-02T17:16:47.736Z,13.10
2018-01-02T17:19:14.118Z,15.77
2018-01-02T17:21:42.036Z,21.20
2018-01-02T17:24:08.702Z,17.20
2018-01-02T17:26:35.219Z,19.70
2018-01-02T17:29:01.614Z,10.33
2018-01-02T17:31:28.899Z,15.90
2018-01-02T17:33:55.393Z,17.50
2018-01-02T17:36:21.874Z,14.40
2018-01-02T17:38:48.268Z,16.83
2018-01-02T17:41:15.389Z,14.87
2018-01-02T17:43:41.836Z,15.13
2018-01-02T17:46:09.251Z,26.10
2018-01-02T17:48:35.698Z,15.33
2018-01-02T17:51:02.276Z,8.53
2018-01-02T17:53:29.311Z,14.90
2018-01-02T17:55:55.818Z,16.40
2018-01-02T17:58:22.486Z,12.13
2018-01-02T18:00:49.659Z,11.97
2018-01-02T18:03:16.150Z,20.10
2018-01-02T18:05:42.559Z,10.93
2018-01-02T18:08:09.437Z,11.87
2018-01-02T18:10:36.681Z,7.87
2018-01-02T18:13:03.113Z,11.57
2018-01-02T18:15:29.566Z,13.47
2018-01-02T18:17:55.975Z,15.00
2018-01-02T18:20:22.363Z,6.20
2018-01-02T18:22:48.768Z,9.80
2018-01-02T18:25:15.143Z,9.77
2018-01-02T18:27:41.557Z,3.00
2018-01-02T18:30:08.567Z,12.87
2018-01-02T18:32:34.925Z,8.70
2018-01-02T18:35:01.370Z,9.03
2018-01-02T18:37:27.724Z,8.30
2018-01-02T18:39:54.353Z,11.37
2018-01-02T18:42:20.744Z,10.17
2018-01-02T18:44:47.105Z,11.90
2018-01-02T18:47:13.827Z,11.23
2018-01-02T18:49:40.217Z,10.83
2018-01-02T18:52:07.088Z,12.73
2018-01-02T18:54:35.384Z,8.23
2018-01-02T18:57:01.922Z,4.80
2018-01-02T18:59:28.422Z,4.90
2018-01-02T19:01:55.611Z,17.23
2018-01-02T19:04:22.072Z,8.50
2018-01-02T19:06:48.489Z,7.90
2018-01-02T19:09:14.878Z,9.70
2018-01-02T19:11:41.253Z,14.00
2018-01-02T19:14:08.316Z,10.93
2018-01-02T19:16:36.126Z,7.10
2018-01-02T19:19:02.456Z,7.20
2018-01-02T19:21:29.670Z,8.03
2018-01-02T19:23:56.071Z,6.57
2018-01-02T19:26:22.415Z,9.73
2018-01-02T19:28:48.782Z,16.57
2018-01-02T19:31:15.226Z,6.00
2018-01-02T19:33:41.679Z,11.83
2018-01-02T19:36:08.525Z,8.50
2018-01-02T19:38:34.996Z,5.53
2018-01-02T19:41:02.136Z,9.80
2018-01-02T19:43:28.560Z,6.43
2018-01-02T19:45:54.981Z,15.53
2018-01-02T19:48:22.943Z,4.63
2018-01-02T19:50:49.406Z,9.37
2018-01-02T19:53:16.543Z,5.10
2018-01-02T19:55:44.407Z,5.63
2018-01-02T19:58:10.902Z,12.23
2018-01-02T20:00:37.344Z,5.00
2018-01-02T20:03:04.385Z,7.40
2018-01-02T20:05:30.859Z,2.53
2018-01-02T20:07:57.259Z,8.60
2018-01-02T20:10:23.655Z,3.07
2018-01-02T20:12:50.075Z,11.73
2018-01-02T20:15:16.538Z,13.37
2018-01-02T20:17:42.936Z,15.03
2018-01-02T20:20:10.271Z,8.97
2018-01-02T20:22:36.771Z,4.00
2018-01-02T20:25:03.365Z,8.07
2018-01-02T20:27:29.783Z,8.40
2018-01-02T20:29:56.152Z,6.70
2018-01-02T20:32:22.587Z,4.70
2018-01-02T20:34:48.982Z,4.47
2018-01-02T20:37:16.238Z,6.03
2018-01-02T20:39:42.631Z,4.67
2018-01-02T20:42:09.504Z,6.10
2018-01-02T20:44:35.943Z,9.30
2018-01-02T20:47:02.365Z,3.83
2018-01-02T20:49:29.259Z,9.10
2018-01-02T20:51:55.834Z,2.60
2018-01-02T20:54:23.119Z,1.80
2018-01-02T20:56:49.547Z,1.83
2018-01-02T20:59:16.693Z,2.00
2018-01-02T21:01:43.142Z,2.70
2018-01-02T21:04:10.528Z,2.93
2018-01-02T21:06:36.951Z,4.90
2018-01-02T21:09:04.705Z,3.87
2018-01-02T21:11:31.204Z,4.23
2018-01-02T21:13:58.359Z,10.90
2018-01-02T21:16:25.651Z,2.47
2018-01-02T21:18:52.061Z,2.57
2018-01-02T21:21:19.313Z,4.77
2018-01-02T21:23:45.777Z,3.13
2018-01-02T21:26:12.919Z,4.13
2018-01-02T21:28:39.391Z,2.00
2018-01-02T21:31:07.115Z,5.87
2018-01-02T21:33:33.670Z,2.70
2018-01-02T21:36:00.063Z,4.83
2018-01-02T21:38:27.198Z,2.20
2018-01-02T21:40:53.623Z,1.47
2018-01-02T21:43:20.023Z,2.17
2018-01-02T21:45:46.418Z,2.30
2018-01-02T21:48:12.832Z,2.70
2018-01-02T21:50:40.050Z,1.80
2018-01-02T21:53:07.779Z,6.00
2018-01-02T21:55:34.233Z,1.40
2018-01-02T21:58:00.871Z,2.53
2018-01-02T22:00:27.485Z,1.37
2018-01-02T22:02:54.015Z,2.67
2018-01-02T22:05:20.375Z,1.70
2018-01-02T22:07:46.766Z,3.13
2018-01-02T22:10:13.301Z,2.80
2018-01-02T22:12:39.806Z,2.73
2018-01-02T22:15:06.602Z,1.90
2018-01-02T22:17:33.042Z,2.87
2018-01-02T22:20:00.958Z,1.00
2018-01-02T22:22:27.384Z,5.23
2018-01-02T22:24:54.031Z,2.63
2018-01-02T22:27:20.423Z,1.03
2018-01-02T22:29:46.848Z,2.50
2018-01-02T22:32:13.326Z,1.10
2018-01-02T22:34:39.766Z,3.20
2018-01-02T22:37:06.260Z,1.30
2018-01-02T22:39:32.642Z,2.50
2018-01-02T22:41:59.811Z,4.30
2018-01-02T22:44:26.203Z,3.20
2018-01-02T22:46:52.599Z,4.30
2018-01-02T22:49:19.691Z,4.57
2018-01-02T22:51:46.135Z,1.23
2018-01-02T22:54:14.070Z,7.50
2018-01-02T22:56:40.521Z,2.40
2018-01-02T22:59:08.449Z,1.43
2018-01-02T23:01:34.850Z,7.70
2018-01-02T23:04:01.959Z,5.47
2018-01-02T23:06:29.270Z,2.20
2018-01-02T23:08:56.411Z,1.83
2018-01-02T23:11:22.837Z,1.30
2018-01-02T23:13:49.320Z,3.63
2018-01-02T23:16:15.878Z,3.60
2018-01-02T23:18:42.295Z,10.00
2018-01-02T23:21:09.346Z,1.37
2018-01-02T23:23:35.903Z,0.70
2018-01-02T23:26:03.546Z,2.50
2018-01-02T23:28:29.977Z,1.73
2018-01-02T23:30:56.386Z,1.43
2018-01-02T23:33:23.546Z,5.80
2018-01-02T23:35:50.031Z,2.73
2018-01-02T23:38:16.414Z,2.50
2018-01-02T23:40:42.807Z,1.30
2018-01-02T23:43:09.294Z,1.87
2018-01-02T23:45:36.466Z,2.23
2018-01-02T23:48:02.997Z,1.10
2018-01-02T23:50:29.527Z,1.27
2018-01-02T23:52:55.894Z,2.50
2018-01-02T23:55:22.353Z,3.37
2018-01-02T23:57:48.762Z,3.87
